sensor_id;sensor_type;location;lat;lon;timestamp;temperature;humidity
28010;DHT22;15334;49.494;8.410;2024-03-25T05:55:03;1.60;99.90
28010;DHT22;15334;49.494;8.410;2024-03-25T05:57:31;1.80;99.90
28010;DHT22;15334;49.494;8.410;2024-03-25T05:59:59;2.00;99.90
28010;DHT22;15334;49.494;8.410;2024-03-25T06:02:29;2.60;99.90
28010;DHT22;15334;49.494;8.410;2024-03-25T06:05:01;2.00;99.90
28010;DHT22;15334;49.494;8.410;2024-03-25T06:07:33;2.10;99.90
28010;DHT22;15334;49.494;8.410;2024-03-25T06:10:03;2.10;99.90
28010;DHT22;15334;49.494;8.410;2024-03-25T06:20:07;2.40;99.90
28010;DHT22;15334;49.494;8.410;2024-03-25T06:22:39;2.90;99.90
28010;DHT22;15334;49.494;8.410;2024-03-25T18:05:33;9.20;91.80
28010;DHT22;15334;49.494;8.410;2024-03-25T18:07:59;9.30;90.40
28010;DHT22;15334;49.494;8.410;2024-03-25T18:10:25;10.00;97.00
28010;DHT22;15334;49.494;8.410;2024-03-25T18:12:51;9.40;90.90
28010;DHT22;15334;49.494;8.410;2024-03-25T18:20:10;9.50;90.50
28010;DHT22;15334;49.494;8.410;2024-03-25T18:22:38;9.60;90.70
28010;DHT22;15334;49.494;8.410;2024-03-25T18:30:05;9.80;99.90
28010;DHT22;15334;49.494;8.410;2024-03-25T18:37:24;10.10;99.90
28010;DHT22;15334;49.494;8.410;2024-03-25T18:39:51;9.70;93.70
28010;DHT22;15334;49.494;8.410;2024-03-25T18:52:03;9.10;98.70
28010;DHT22;15334;49.494;8.410;2024-03-25T18:56:58;10.00;89.50
28010;DHT22;15334;49.494;8.410;2024-03-25T18:59:24;9.90;90.00
28010;DHT22;15334;49.494;8.410;2024-03-25T19:01:50;10.00;90.00
28010;DHT22;15334;49.494;8.410;2024-03-25T19:06:42;10.20;94.10
28010;DHT22;15334;49.494;8.410;2024-03-25T19:09:08;10.00;90.20
28010;DHT22;15334;49.494;8.410;2024-03-25T19:11:37;10.00;90.10
28010;DHT22;15334;49.494;8.410;2024-03-25T19:14:05;10.00;90.00
28010;DHT22;15334;49.494;8.410;2024-03-25T19:16:31;10.00;90.50
28010;DHT22;15334;49.494;8.410;2024-03-25T19:18:57;10.00;90.20
28010;DHT22;15334;49.494;8.410;2024-03-25T19:21:23;10.00;90.20
28010;DHT22;15334;49.494;8.410;2024-03-25T19:23:49;9.90;90.20
28010;DHT22;15334;49.494;8.410;2024-03-25T19:26:15;9.90;90.30
28010;DHT22;15334;49.494;8.410;2024-03-25T19:28:41;9.90;90.20
28010;DHT22;15334;49.494;8.410;2024-03-25T19:31:08;9.90;90.40
28010;DHT22;15334;49.494;8.410;2024-03-25T19:33:34;9.90;90.70
28010;DHT22;15334;49.494;8.410;2024-03-25T19:36:01;9.90;90.40
28010;DHT22;15334;49.494;8.410;2024-03-25T19:38:27;9.90;90.60
28010;DHT22;15334;49.494;8.410;2024-03-25T19:40:53;10.10;91.20
28010;DHT22;15334;49.494;8.410;2024-03-25T19:43:19;9.80;90.70
28010;DHT22;15334;49.494;8.410;2024-03-25T19:45:45;9.70;90.80
28010;DHT22;15334;49.494;8.410;2024-03-25T19:48:13;9.80;90.90
28010;DHT22;15334;49.494;8.410;2024-03-25T19:50:39;9.70;91.70
28010;DHT22;15334;49.494;8.410;2024-03-25T19:53:05;9.60;91.40
28010;DHT22;15334;49.494;8.410;2024-03-25T19:55:31;9.60;91.70
28010;DHT22;15334;49.494;8.410;2024-03-25T19:57:57;9.60;91.50
28010;DHT22;15334;49.494;8.410;2024-03-25T20:00:23;9.50;91.80
28010;DHT22;15334;49.494;8.410;2024-03-25T20:02:49;9.30;93.00
28010;DHT22;15334;49.494;8.410;2024-03-25T20:05:17;9.40;91.80
28010;DHT22;15334;49.494;8.410;2024-03-25T20:07:43;9.40;92.20
28010;DHT22;15334;49.494;8.410;2024-03-25T20:10:09;9.40;92.50
28010;DHT22;15334;49.494;8.410;2024-03-25T20:12:35;9.30;92.20
28010;DHT22;15334;49.494;8.410;2024-03-25T20:15:01;9.30;92.20
28010;DHT22;15334;49.494;8.410;2024-03-25T20:17:27;9.30;92.80
28010;DHT22;15334;49.494;8.410;2024-03-25T20:19:53;9.20;92.70
28010;DHT22;15334;49.494;8.410;2024-03-25T20:22:20;9.20;93.00
28010;DHT22;15334;49.494;8.410;2024-03-25T20:24:47;9.20;92.90
28010;DHT22;15334;49.494;8.410;2024-03-25T20:27:13;9.10;93.10
28010;DHT22;15334;49.494;8.410;2024-03-25T20:29:39;9.10;93.20
28010;DHT22;15334;49.494;8.410;2024-03-25T20:32:05;9.10;93.30
28010;DHT22;15334;49.494;8.410;2024-03-25T20:34:31;9.00;93.20
28010;DHT22;15334;49.494;8.410;2024-03-25T20:36:57;9.00;93.20
28010;DHT22;15334;49.494;8.410;2024-03-25T20:39:25;9.00;93.30
28010;DHT22;15334;49.494;8.410;2024-03-25T20:44:17;9.10;93.50
28010;DHT22;15334;49.494;8.410;2024-03-25T20:46:43;8.90;93.90
28010;DHT22;15334;49.494;8.410;2024-03-25T20:49:09;8.90;93.20
28010;DHT22;15334;49.494;8.410;2024-03-25T20:51:35;8.90;93.30
28010;DHT22;15334;49.494;8.410;2024-03-25T20:54:01;8.90;93.30
28010;DHT22;15334;49.494;8.410;2024-03-25T20:56:28;8.90;93.20
28010;DHT22;15334;49.494;8.410;2024-03-25T20:58:54;8.90;93.70
28010;DHT22;15334;49.494;8.410;2024-03-25T21:03:47;8.90;93.20
28010;DHT22;15334;49.494;8.410;2024-03-25T21:06:13;8.80;93.90
28010;DHT22;15334;49.494;8.410;2024-03-25T21:08:39;8.80;94.00
28010;DHT22;15334;49.494;8.410;2024-03-25T21:11:05;8.70;94.10
28010;DHT22;15334;49.494;8.410;2024-03-25T21:13:32;8.70;94.30
28010;DHT22;15334;49.494;8.410;2024-03-25T21:15:58;8.60;94.20
28010;DHT22;15334;49.494;8.410;2024-03-25T21:18:24;8.60;94.50
28010;DHT22;15334;49.494;8.410;2024-03-25T21:20:50;8.60;94.10
28010;DHT22;15334;49.494;8.410;2024-03-25T21:23:16;8.60;94.50
28010;DHT22;15334;49.494;8.410;2024-03-25T21:25:42;8.60;94.80
28010;DHT22;15334;49.494;8.410;2024-03-25T21:28:08;8.50;94.30
28010;DHT22;15334;49.494;8.410;2024-03-25T21:30:35;8.50;93.50
28010;DHT22;15334;49.494;8.410;2024-03-25T21:33:04;8.60;94.30
28010;DHT22;15334;49.494;8.410;2024-03-25T21:35:30;8.70;93.40
28010;DHT22;15334;49.494;8.410;2024-03-25T21:37:56;8.60;93.20
